createdAt,value
2019-03-27T00:01:02.760Z,8.02
2019-03-27T00:03:30.202Z,7.79
2019-03-27T00:05:57.651Z,7.91
2019-03-27T00:08:25.167Z,7.64
2019-03-27T00:10:52.695Z,7.70
2019-03-27T00:13:20.167Z,7.68
2019-03-27T00:15:47.653Z,7.57
2019-03-27T00:18:15.109Z,7.47
2019-03-27T00:20:43.362Z,7.73
2019-03-27T00:23:10.838Z,7.56
2019-03-27T00:25:38.308Z,7.71
2019-03-27T00:28:05.795Z,7.73
2019-03-27T00:30:33.283Z,7.80
2019-03-27T00:33:00.725Z,7.88
2019-03-27T00:35:28.241Z,8.11
2019-03-27T00:37:55.824Z,8.32
2019-03-27T00:40:23.317Z,8.50
2019-03-27T00:42:50.770Z,8.59
2019-03-27T00:45:26.461Z,8.46
2019-03-27T00:47:45.780Z,8.69
2019-03-27T00:50:13.360Z,8.77
2019-03-27T00:52:40.829Z,8.58
2019-03-27T00:55:08.296Z,8.69
2019-03-27T00:57:35.760Z,8.37
2019-03-27T01:00:03.215Z,8.42
2019-03-27T01:02:30.692Z,8.64
2019-03-27T01:04:58.160Z,8.10
2019-03-27T01:07:25.629Z,7.95
2019-03-27T01:09:53.073Z,8.04
2019-03-27T01:12:20.538Z,8.11
2019-03-27T01:14:47.996Z,8.06
2019-03-27T01:17:15.427Z,7.91
2019-03-27T01:19:42.918Z,7.62
2019-03-27T01:22:11.601Z,7.60
2019-03-27T01:24:39.151Z,7.56
2019-03-27T01:27:06.627Z,7.72
2019-03-27T01:29:34.102Z,8.00
2019-03-27T01:32:01.573Z,8.24
2019-03-27T01:34:30.010Z,8.19
2019-03-27T01:36:57.526Z,8.15
2019-03-27T01:39:25.156Z,8.17
2019-03-27T01:41:52.626Z,8.20
2019-03-27T01:44:20.107Z,8.43
2019-03-27T01:46:47.581Z,8.56
2019-03-27T01:49:15.029Z,8.09
2019-03-27T01:51:42.530Z,8.10
2019-03-27T01:54:09.993Z,8.25
2019-03-27T01:56:37.473Z,8.53
2019-03-27T01:59:04.955Z,8.38
2019-03-27T02:01:32.436Z,8.17
2019-03-27T02:03:59.920Z,8.09
2019-03-27T02:06:27.418Z,8.20
2019-03-27T02:08:54.872Z,7.97
2019-03-27T02:11:22.372Z,8.06
2019-03-27T02:13:49.973Z,7.78
2019-03-27T02:16:17.429Z,7.76
2019-03-27T02:18:44.877Z,7.74
2019-03-27T02:21:12.355Z,7.78
2019-03-27T02:23:39.858Z,7.54
2019-03-27T02:26:07.316Z,7.43
2019-03-27T02:28:34.794Z,7.67
2019-03-27T02:31:02.262Z,7.13
2019-03-27T02:33:29.948Z,7.16
2019-03-27T02:35:57.410Z,7.17
2019-03-27T02:38:24.866Z,7.52
2019-03-27T02:40:52.345Z,7.54
2019-03-27T02:43:19.819Z,7.45
2019-03-27T02:45:47.273Z,7.59
2019-03-27T02:48:14.764Z,7.53
2019-03-27T02:50:42.346Z,7.46
2019-03-27T02:53:09.831Z,7.29
2019-03-27T02:55:37.439Z,7.36
2019-03-27T02:58:05.279Z,7.30
2019-03-27T03:00:32.792Z,7.41
2019-03-27T03:03:00.238Z,7.63
2019-03-27T03:05:27.695Z,7.43
2019-03-27T03:07:55.151Z,7.15
2019-03-27T03:10:22.645Z,7.38
2019-03-27T03:12:50.133Z,7.46
2019-03-27T03:15:20.450Z,7.56
2019-03-27T03:17:47.928Z,7.48
2019-03-27T03:20:15.384Z,7.27
2019-03-27T03:22:43.142Z,6.98
2019-03-27T03:25:10.658Z,7.00
2019-03-27T03:27:38.146Z,7.08
2019-03-27T03:30:07.000Z,7.26
2019-03-27T03:32:34.510Z,7.41
2019-03-27T03:35:01.983Z,7.20
2019-03-27T03:37:29.502Z,7.39
2019-03-27T03:39:57.026Z,7.74
2019-03-27T03:42:24.504Z,7.86
2019-03-27T03:44:51.965Z,7.99
2019-03-27T03:47:19.431Z,7.73
2019-03-27T03:49:46.903Z,7.37
2019-03-27T03:52:14.449Z,7.18
2019-03-27T03:54:41.933Z,7.06
2019-03-27T03:57:09.468Z,6.98
2019-03-27T03:59:36.935Z,6.90
2019-03-27T04:02:04.384Z,6.91
2019-03-27T04:04:31.871Z,6.92
2019-03-27T04:06:59.394Z,6.96
2019-03-27T04:09:26.802Z,6.63
2019-03-27T04:11:54.283Z,6.50
2019-03-27T04:14:21.756Z,6.59
2019-03-27T04:16:49.222Z,6.67
2019-03-27T04:19:16.755Z,6.63
2019-03-27T04:21:44.202Z,6.68
2019-03-27T04:24:11.728Z,6.85
2019-03-27T04:26:39.214Z,6.80
2019-03-27T04:29:06.717Z,6.95
2019-03-27T04:31:34.167Z,6.77
2019-03-27T04:34:01.658Z,6.70
2019-03-27T04:36:29.134Z,6.41
2019-03-27T04:38:56.710Z,6.47
2019-03-27T04:41:24.118Z,6.64
2019-03-27T04:43:51.591Z,6.32
2019-03-27T04:46:19.078Z,6.23
2019-03-27T04:48:46.539Z,6.13
2019-03-27T04:51:14.650Z,6.18
2019-03-27T04:53:42.147Z,6.23
2019-03-27T04:56:09.623Z,6.02
2019-03-27T04:58:37.075Z,5.81
2019-03-27T05:01:04.519Z,5.78
2019-03-27T05:03:31.983Z,5.84
2019-03-27T05:05:59.459Z,6.01
2019-03-27T05:08:26.889Z,6.22
2019-03-27T05:10:54.360Z,6.32
2019-03-27T05:13:21.798Z,6.33
2019-03-27T05:15:49.369Z,6.31
2019-03-27T05:18:16.802Z,6.29
2019-03-27T05:20:45.199Z,6.36
2019-03-27T05:23:12.652Z,6.42
2019-03-27T05:25:40.115Z,6.31
2019-03-27T05:28:07.568Z,6.58
2019-03-27T05:30:35.015Z,6.23
2019-03-27T05:33:02.493Z,6.43
2019-03-27T05:35:29.929Z,6.50
2019-03-27T05:37:57.393Z,6.57
2019-03-27T05:40:24.851Z,6.74
2019-03-27T05:43:00.731Z,6.77
2019-03-27T05:45:21.062Z,6.15
2019-03-27T05:47:58.971Z,6.35
2019-03-27T05:50:15.978Z,6.47
2019-03-27T05:52:43.459Z,6.70
2019-03-27T05:55:10.947Z,6.57
2019-03-27T05:57:38.397Z,6.48
2019-03-27T06:00:05.876Z,6.67
2019-03-27T06:02:33.307Z,6.78
2019-03-27T06:05:00.771Z,6.65
2019-03-27T06:07:28.210Z,6.59
2019-03-27T06:09:55.647Z,6.76
2019-03-27T06:12:23.102Z,6.76
2019-03-27T06:14:50.575Z,6.63
2019-03-27T06:17:18.044Z,6.73
2019-03-27T06:19:46.331Z,7.01
2019-03-27T06:22:15.222Z,7.28
2019-03-27T06:24:41.297Z,7.48
2019-03-27T06:27:08.769Z,7.63
2019-03-27T06:29:37.178Z,7.58
2019-03-27T06:32:04.742Z,7.78
2019-03-27T06:34:32.835Z,7.81
2019-03-27T06:37:00.574Z,7.50
2019-03-27T06:39:28.132Z,7.43
2019-03-27T06:41:56.214Z,7.64
2019-03-27T06:44:23.725Z,7.36
2019-03-27T06:46:51.190Z,7.62
2019-03-27T06:49:18.669Z,7.92
2019-03-27T06:51:46.879Z,7.74
2019-03-27T06:54:14.326Z,7.94
2019-03-27T06:56:41.779Z,7.47
2019-03-27T06:59:09.265Z,7.62
2019-03-27T07:01:36.724Z,8.00
2019-03-27T07:04:10.343Z,7.34
2019-03-27T07:06:31.679Z,7.05
2019-03-27T07:08:59.166Z,7.29
2019-03-27T07:11:26.724Z,7.56
2019-03-27T07:13:54.175Z,7.45
2019-03-27T07:16:21.649Z,7.41
2019-03-27T07:18:49.091Z,7.71
2019-03-27T07:21:17.394Z,7.48
2019-03-27T07:23:44.881Z,7.44
2019-03-27T07:26:12.347Z,7.11
2019-03-27T07:28:39.840Z,7.11
2019-03-27T07:31:07.309Z,7.42
2019-03-27T07:33:34.758Z,7.64
2019-03-27T07:36:02.224Z,7.26
2019-03-27T07:38:29.678Z,7.48
2019-03-27T07:40:57.166Z,7.43
2019-03-27T07:43:24.609Z,7.39
2019-03-27T07:45:52.068Z,7.56
2019-03-27T07:48:19.521Z,7.63
2019-03-27T07:50:47.981Z,7.31
2019-03-27T07:53:17.149Z,7.25
2019-03-27T07:55:44.592Z,7.38
2019-03-27T07:58:12.054Z,7.84
2019-03-27T08:00:39.505Z,8.13
2019-03-27T08:03:06.965Z,8.08
2019-03-27T08:05:34.875Z,8.26
2019-03-27T08:08:02.314Z,7.84
2019-03-27T08:10:29.792Z,7.36
2019-03-27T08:12:57.281Z,7.37
2019-03-27T08:15:24.708Z,7.62
2019-03-27T08:17:52.190Z,7.60
2019-03-27T08:20:19.666Z,7.72
2019-03-27T08:22:47.109Z,7.41
2019-03-27T08:25:14.565Z,7.71
2019-03-27T08:27:42.047Z,7.77
2019-03-27T08:30:10.070Z,8.14
2019-03-27T08:32:37.698Z,7.73
2019-03-27T08:35:05.006Z,7.67
2019-03-27T08:37:32.452Z,7.66
2019-03-27T08:39:59.950Z,7.66
2019-03-27T08:42:27.385Z,8.11
2019-03-27T08:44:54.896Z,8.36
2019-03-27T08:47:22.323Z,8.30
2019-03-27T08:49:49.784Z,8.36
2019-03-27T08:52:17.292Z,8.04
2019-03-27T08:54:44.758Z,8.50
2019-03-27T08:57:12.222Z,8.87
2019-03-27T08:59:39.699Z,8.44
2019-03-27T09:02:07.166Z,8.31
2019-03-27T09:04:34.612Z,8.43
2019-03-27T09:07:02.071Z,8.30
2019-03-27T09:09:29.512Z,8.66
2019-03-27T09:11:57.018Z,8.80
2019-03-27T09:14:24.460Z,8.68
2019-03-27T09:16:51.897Z,8.66
2019-03-27T09:19:19.621Z,8.82
2019-03-27T09:21:47.092Z,8.78
2019-03-27T09:24:14.569Z,8.12
2019-03-27T09:26:42.016Z,8.39
2019-03-27T09:29:09.463Z,8.67
2019-03-27T09:31:44.871Z,8.68
2019-03-27T09:34:04.422Z,8.75
2019-03-27T09:36:31.882Z,8.51
2019-03-27T09:38:59.349Z,8.65
2019-03-27T09:41:26.784Z,8.56
2019-03-27T09:43:54.242Z,9.03
2019-03-27T09:46:21.692Z,9.32
2019-03-27T09:48:50.138Z,9.06
2019-03-27T09:51:17.571Z,9.00
2019-03-27T09:53:45.013Z,8.93
2019-03-27T09:56:19.019Z,8.85
2019-03-27T09:58:39.951Z,8.98
2019-03-27T10:01:07.410Z,9.03
2019-03-27T10:03:34.845Z,9.08
2019-03-27T10:06:02.308Z,8.77
2019-03-27T10:08:29.756Z,9.06
2019-03-27T10:10:57.174Z,9.17
2019-03-27T10:13:24.649Z,8.91
2019-03-27T10:15:52.081Z,9.07
2019-03-27T10:18:19.559Z,9.02
2019-03-27T10:20:47.031Z,8.90
2019-03-27T10:23:14.467Z,8.81
2019-03-27T10:25:41.932Z,8.90
2019-03-27T10:28:09.404Z,9.08
2019-03-27T10:30:36.836Z,9.13
2019-03-27T10:33:04.292Z,9.36
2019-03-27T10:35:31.753Z,9.27
2019-03-27T10:38:00.668Z,9.43
2019-03-27T10:40:28.174Z,9.66
2019-03-27T10:42:55.633Z,9.67
2019-03-27T10:45:23.094Z,9.49
2019-03-27T10:47:51.226Z,9.71
2019-03-27T10:50:18.741Z,9.86
2019-03-27T10:52:46.215Z,9.82
2019-03-27T10:55:13.665Z,10.18
2019-03-27T10:57:41.120Z,10.12
2019-03-27T11:00:08.621Z,9.74
2019-03-27T11:02:36.057Z,9.71
2019-03-27T11:05:04.521Z,10.09
2019-03-27T11:07:32.108Z,10.03
2019-03-27T11:09:59.575Z,10.34
2019-03-27T11:12:27.009Z,10.48
2019-03-27T11:14:54.480Z,10.53
2019-03-27T11:17:21.922Z,9.75
2019-03-27T11:19:49.364Z,9.76
2019-03-27T11:22:16.816Z,9.93
2019-03-27T11:24:44.250Z,10.01
2019-03-27T11:27:11.696Z,9.93
2019-03-27T11:29:39.137Z,10.25
2019-03-27T11:32:06.594Z,9.93
2019-03-27T11:34:34.053Z,9.80
2019-03-27T11:37:01.491Z,9.71
2019-03-27T11:39:28.943Z,10.08
2019-03-27T11:41:56.409Z,10.32
2019-03-27T11:44:23.857Z,10.16
2019-03-27T11:46:51.315Z,10.59
2019-03-27T11:49:18.803Z,10.75
2019-03-27T11:51:46.272Z,10.88
2019-03-27T11:54:13.721Z,10.67
2019-03-27T11:56:41.183Z,10.41
2019-03-27T11:59:08.634Z,10.01
2019-03-27T12:01:42.060Z,10.43
2019-03-27T12:04:03.595Z,10.45
2019-03-27T12:06:31.050Z,10.43
2019-03-27T12:08:58.488Z,10.22
2019-03-27T12:11:25.938Z,10.43
2019-03-27T12:13:53.847Z,10.76
2019-03-27T12:16:21.395Z,11.00
2019-03-27T12:18:48.898Z,10.99
2019-03-27T12:21:16.372Z,11.00
2019-03-27T12:23:43.845Z,11.14
2019-03-27T12:26:13.113Z,11.21
2019-03-27T12:28:40.748Z,11.07
2019-03-27T12:31:08.248Z,10.89
2019-03-27T12:33:35.677Z,10.53
2019-03-27T12:36:03.177Z,10.63
2019-03-27T12:38:30.617Z,10.49
2019-03-27T12:40:58.082Z,10.73
2019-03-27T12:43:25.569Z,10.58
2019-03-27T12:45:53.576Z,10.81
2019-03-27T12:48:21.027Z,10.51
2019-03-27T12:50:48.516Z,10.62
2019-03-27T12:53:15.974Z,10.53
2019-03-27T12:55:43.432Z,10.51
2019-03-27T12:58:11.884Z,10.42
2019-03-27T13:00:39.586Z,10.34
2019-03-27T13:03:07.044Z,10.53
2019-03-27T13:05:34.503Z,10.40
2019-03-27T13:08:01.969Z,10.85
2019-03-27T13:10:29.434Z,11.10
2019-03-27T13:12:56.883Z,11.03
2019-03-27T13:15:24.326Z,11.05
2019-03-27T13:17:51.831Z,10.74
2019-03-27T13:20:19.276Z,10.81
2019-03-27T13:22:46.712Z,11.14
2019-03-27T13:25:14.156Z,11.29
2019-03-27T13:27:41.621Z,11.19
2019-03-27T13:30:09.112Z,11.06
2019-03-27T13:32:36.568Z,11.20
2019-03-27T13:35:05.009Z,10.74
2019-03-27T13:37:32.429Z,10.95
2019-03-27T13:40:00.178Z,11.04
2019-03-27T13:42:27.328Z,11.26
2019-03-27T13:44:55.028Z,10.93
2019-03-27T13:47:22.529Z,11.12
2019-03-27T13:49:51.304Z,10.84
2019-03-27T13:52:19.290Z,11.17
2019-03-27T13:54:46.851Z,11.21
2019-03-27T13:57:15.154Z,10.87
2019-03-27T13:59:42.702Z,11.02
2019-03-27T14:02:10.158Z,11.33
2019-03-27T14:04:37.663Z,11.38
2019-03-27T14:07:05.246Z,11.70
2019-03-27T14:09:32.757Z,11.53
2019-03-27T14:12:00.297Z,11.48
2019-03-27T14:14:27.697Z,11.23
2019-03-27T14:16:55.478Z,10.89
2019-03-27T14:19:22.941Z,11.45
2019-03-27T14:21:54.969Z,11.46
2019-03-27T14:24:18.106Z,11.52
2019-03-27T14:26:45.769Z,11.38
2019-03-27T14:29:13.128Z,11.69
2019-03-27T14:31:40.590Z,11.70
2019-03-27T14:34:08.071Z,11.70
2019-03-27T14:36:35.533Z,11.14
2019-03-27T14:39:03.030Z,11.43
2019-03-27T14:41:30.479Z,11.44
2019-03-27T14:43:57.941Z,11.48
2019-03-27T14:46:26.013Z,11.67
2019-03-27T14:48:53.648Z,11.25
2019-03-27T14:51:21.188Z,11.14
2019-03-27T14:53:48.709Z,11.13
2019-03-27T14:56:16.172Z,11.38
2019-03-27T14:58:43.651Z,11.53
2019-03-27T15:01:11.086Z,11.69
2019-03-27T15:03:38.606Z,11.75
2019-03-27T15:06:06.075Z,12.20
2019-03-27T15:08:33.495Z,12.42
2019-03-27T15:11:00.980Z,12.26
2019-03-27T15:13:28.466Z,11.89
2019-03-27T15:15:56.610Z,12.48
2019-03-27T15:18:24.065Z,12.57
2019-03-27T15:20:51.655Z,12.67
2019-03-27T15:23:19.117Z,12.73
2019-03-27T15:25:46.608Z,11.95
2019-03-27T15:28:14.188Z,12.22
2019-03-27T15:30:41.656Z,11.70
2019-03-27T15:33:09.198Z,11.53
2019-03-27T15:35:36.677Z,11.75
2019-03-27T15:38:04.121Z,11.47
2019-03-27T15:40:37.363Z,11.63
2019-03-27T15:43:04.813Z,11.68
2019-03-27T15:45:32.323Z,11.81
2019-03-27T15:47:59.742Z,11.97
2019-03-27T15:50:27.448Z,11.91
2019-03-27T15:52:54.875Z,11.86
2019-03-27T15:55:22.405Z,12.31
2019-03-27T15:57:49.873Z,12.10
2019-03-27T16:00:17.319Z,12.30
2019-03-27T16:02:44.781Z,12.48
2019-03-27T16:05:12.214Z,12.42
2019-03-27T16:07:39.690Z,12.54
2019-03-27T16:10:07.214Z,12.64
2019-03-27T16:12:36.531Z,12.71
2019-03-27T16:15:03.245Z,12.51
2019-03-27T16:17:30.699Z,12.58
2019-03-27T16:19:58.136Z,12.35
2019-03-27T16:22:25.644Z,12.32
2019-03-27T16:24:53.888Z,11.84
2019-03-27T16:27:21.318Z,12.32
2019-03-27T16:29:48.808Z,12.44
2019-03-27T16:32:16.264Z,12.17
2019-03-27T16:34:43.762Z,12.24
2019-03-27T16:37:11.256Z,12.42
2019-03-27T16:39:38.747Z,12.31
2019-03-27T16:42:06.195Z,12.18
2019-03-27T16:44:33.631Z,11.87
2019-03-27T16:47:01.047Z,11.87
2019-03-27T16:49:28.896Z,11.85
2019-03-27T16:51:56.669Z,11.71
2019-03-27T16:54:24.052Z,11.61
2019-03-27T16:56:51.613Z,11.71
2019-03-27T16:59:20.281Z,11.85
2019-03-27T17:01:47.730Z,11.86
2019-03-27T17:04:15.172Z,11.66
2019-03-27T17:06:42.663Z,11.60
2019-03-27T17:09:10.137Z,11.51
2019-03-27T17:11:37.594Z,11.58
2019-03-27T17:14:05.028Z,11.61
2019-03-27T17:16:32.476Z,11.62
2019-03-27T17:18:59.925Z,11.80
2019-03-27T17:21:27.358Z,11.76
2019-03-27T17:23:54.841Z,11.98
2019-03-27T17:26:22.301Z,11.88
2019-03-27T17:28:49.787Z,12.08
2019-03-27T17:31:17.304Z,11.93
2019-03-27T17:33:44.838Z,11.79
2019-03-27T17:36:12.279Z,12.06
2019-03-27T17:38:39.696Z,11.71
2019-03-27T17:41:07.172Z,11.77
2019-03-27T17:43:34.632Z,11.69
2019-03-27T17:46:02.959Z,11.67
2019-03-27T17:48:30.395Z,11.49
2019-03-27T17:50:57.850Z,11.45
2019-03-27T17:53:31.629Z,11.55
2019-03-27T17:55:52.790Z,11.63
2019-03-27T17:58:20.207Z,11.53
2019-03-27T18:00:47.653Z,11.55
2019-03-27T18:03:15.102Z,11.58
2019-03-27T18:05:42.561Z,11.33
2019-03-27T18:08:10.003Z,11.27
2019-03-27T18:10:37.511Z,11.11
2019-03-27T18:13:05.036Z,11.31
2019-03-27T18:15:32.520Z,11.06
2019-03-27T18:18:00.620Z,11.03
2019-03-27T18:20:29.015Z,11.01
2019-03-27T18:22:57.224Z,11.18
2019-03-27T18:25:24.621Z,10.96
2019-03-27T18:27:52.089Z,11.00
2019-03-27T18:30:19.542Z,10.99
2019-03-27T18:32:47.033Z,10.85
2019-03-27T18:35:14.481Z,10.88
2019-03-27T18:37:41.950Z,10.85
2019-03-27T18:40:09.417Z,10.88
2019-03-27T18:42:36.882Z,10.96
2019-03-27T18:45:05.085Z,10.91
2019-03-27T18:47:32.543Z,10.83
2019-03-27T18:49:59.977Z,10.72
2019-03-27T18:52:27.423Z,10.67
2019-03-27T18:54:55.087Z,10.70
2019-03-27T18:57:22.599Z,10.58
2019-03-27T18:59:50.597Z,10.76
2019-03-27T19:02:18.155Z,10.88
2019-03-27T19:04:45.534Z,10.78
2019-03-27T19:07:12.994Z,10.74
2019-03-27T19:09:40.433Z,10.56
2019-03-27T19:12:07.898Z,10.42
2019-03-27T19:14:35.327Z,10.50
2019-03-27T19:17:05.809Z,10.58
2019-03-27T19:19:33.383Z,10.77
2019-03-27T19:22:02.177Z,10.71
2019-03-27T19:24:29.622Z,10.87
2019-03-27T19:26:57.095Z,10.84
2019-03-27T19:29:24.570Z,11.01
2019-03-27T19:31:52.012Z,10.91
2019-03-27T19:34:19.474Z,10.97
2019-03-27T19:36:46.969Z,10.93
2019-03-27T19:39:14.462Z,10.93
2019-03-27T19:41:41.924Z,10.93
2019-03-27T19:44:09.368Z,10.72
2019-03-27T19:46:36.867Z,10.70
2019-03-27T19:49:04.317Z,10.69
2019-03-27T19:51:32.442Z,10.71
2019-03-27T19:53:59.917Z,10.53
2019-03-27T19:56:27.357Z,10.38
2019-03-27T19:58:54.814Z,10.66
2019-03-27T20:01:22.235Z,10.54
2019-03-27T20:03:50.458Z,10.55
2019-03-27T20:06:17.914Z,10.40
2019-03-27T20:08:45.372Z,10.46
2019-03-27T20:11:12.792Z,10.46
2019-03-27T20:13:40.235Z,10.61
2019-03-27T20:16:07.671Z,10.52
2019-03-27T20:18:35.243Z,10.63
2019-03-27T20:21:03.060Z,10.57
2019-03-27T20:23:31.265Z,10.61
2019-03-27T20:25:58.890Z,10.64
2019-03-27T20:28:26.375Z,10.59
2019-03-27T20:30:53.821Z,10.48
2019-03-27T20:33:21.265Z,10.57
2019-03-27T20:35:50.849Z,10.46
2019-03-27T20:38:18.310Z,10.42
2019-03-27T20:40:45.773Z,10.39
2019-03-27T20:43:13.196Z,10.49
2019-03-27T20:45:40.632Z,10.49
2019-03-27T20:48:08.066Z,10.52
2019-03-27T20:50:35.555Z,10.54
2019-03-27T20:53:03.654Z,10.65
2019-03-27T20:55:31.204Z,10.53
2019-03-27T20:57:58.599Z,10.47
2019-03-27T21:00:26.073Z,10.44
2019-03-27T21:02:53.551Z,10.56
2019-03-27T21:05:21.039Z,10.56
2019-03-27T21:07:48.483Z,10.53
2019-03-27T21:10:15.926Z,10.60
2019-03-27T21:12:43.408Z,10.47
2019-03-27T21:15:10.885Z,10.57
2019-03-27T21:17:38.329Z,10.61
2019-03-27T21:20:05.778Z,10.62
2019-03-27T21:22:33.225Z,10.72
2019-03-27T21:25:08.522Z,10.42
2019-03-27T21:27:28.185Z,10.52
2019-03-27T21:29:55.664Z,10.62
2019-03-27T21:32:23.234Z,10.67
2019-03-27T21:34:50.733Z,10.49
2019-03-27T21:37:18.213Z,10.54
2019-03-27T21:39:45.692Z,10.66
2019-03-27T21:42:13.252Z,10.54
2019-03-27T21:44:40.748Z,10.66
2019-03-27T21:47:08.234Z,10.57
2019-03-27T21:49:35.743Z,10.62
2019-03-27T21:52:03.338Z,10.56
2019-03-27T21:54:30.859Z,10.79
2019-03-27T21:56:58.329Z,10.70
2019-03-27T21:59:25.848Z,10.76
2019-03-27T22:01:53.344Z,10.78
2019-03-27T22:04:20.835Z,10.73
2019-03-27T22:06:48.287Z,10.70
2019-03-27T22:09:15.830Z,10.72
2019-03-27T22:11:43.403Z,10.63
2019-03-27T22:14:10.880Z,10.46
2019-03-27T22:16:38.344Z,10.57
2019-03-27T22:19:05.834Z,10.33
2019-03-27T22:21:33.514Z,10.22
2019-03-27T22:24:01.042Z,10.40
2019-03-27T22:26:28.598Z,10.29
2019-03-27T22:28:56.098Z,10.32
2019-03-27T22:31:23.749Z,10.32
2019-03-27T22:33:51.246Z,10.29
2019-03-27T22:36:18.825Z,10.38
2019-03-27T22:38:46.351Z,10.09
2019-03-27T22:41:13.835Z,9.93
2019-03-27T22:43:41.312Z,10.00
2019-03-27T22:46:08.821Z,9.95
2019-03-27T22:48:36.315Z,9.95
2019-03-27T22:51:03.797Z,9.88
2019-03-27T22:53:31.390Z,9.95
2019-03-27T22:56:01.078Z,9.89
2019-03-27T22:58:28.682Z,10.04
2019-03-27T23:00:56.152Z,10.08
2019-03-27T23:03:23.794Z,9.99
2019-03-27T23:05:51.284Z,10.06
2019-03-27T23:08:18.856Z,10.04
2019-03-27T23:10:46.386Z,10.08
2019-03-27T23:13:13.866Z,10.14
2019-03-27T23:15:41.347Z,10.25
2019-03-27T23:18:08.828Z,10.35
2019-03-27T23:20:37.049Z,10.43
2019-03-27T23:23:04.677Z,10.19
2019-03-27T23:25:32.124Z,10.23
2019-03-27T23:27:59.619Z,10.06
2019-03-27T23:30:27.274Z,9.95
2019-03-27T23:32:55.367Z,10.09
2019-03-27T23:35:22.903Z,10.00
2019-03-27T23:37:50.422Z,9.92
2019-03-27T23:40:17.945Z,9.89
2019-03-27T23:42:45.412Z,9.81
2019-03-27T23:45:12.914Z,9.81
2019-03-27T23:47:40.431Z,9.77
2019-03-27T23:50:08.192Z,9.81
2019-03-27T23:52:35.719Z,10.00
2019-03-27T23:55:03.198Z,9.89
2019-03-27T23:57:30.647Z,9.95
2019-03-27T23:59:58.190Z,9.96
